sensor_id;sensor_type;location;lat;lon;timestamp;P1;durP1;ratioP1;P2;durP2;ratioP2
33459;SDS011;19795;53.160;6.612;2023-03-08T05:24:15;4.93;;;1.73;;
33459;SDS011;19795;53.160;6.612;2023-03-08T05:26:41;5.70;;;1.67;;
33459;SDS011;19795;53.160;6.612;2023-03-08T05:29:07;8.63;;;2.10;;
33459;SDS011;19795;53.160;6.612;2023-03-08T05:31:32;5.57;;;1.65;;
33459;SDS011;19795;53.160;6.612;2023-03-08T05:34:00;3.92;;;2.00;;
33459;SDS011;19795;53.160;6.612;2023-03-08T05:36:26;4.47;;;2.17;;
33459;SDS011;19795;53.160;6.612;2023-03-08T05:38:55;3.63;;;1.70;;
33459;SDS011;19795;53.160;6.612;2023-03-08T05:41:21;6.22;;;2.30;;
33459;SDS011;19795;53.160;6.612;2023-03-08T05:43:46;2.65;;;1.70;;
33459;SDS011;19795;53.160;6.612;2023-03-08T05:46:13;5.53;;;3.03;;
33459;SDS011;19795;53.160;6.612;2023-03-08T05:48:40;7.68;;;2.55;;
33459;SDS011;19795;53.160;6.612;2023-03-08T05:51:07;4.60;;;2.30;;
33459;SDS011;19795;53.160;6.612;2023-03-08T05:53:35;5.07;;;2.28;;
33459;SDS011;19795;53.160;6.612;2023-03-08T05:58:40;5.63;;;1.90;;
33459;SDS011;19795;53.160;6.612;2023-03-08T06:03:43;11.48;;;6.72;;
33459;SDS011;19795;53.160;6.612;2023-03-08T06:06:10;8.07;;;3.22;;
33459;SDS011;19795;53.160;6.612;2023-03-08T06:08:36;5.80;;;3.47;;
33459;SDS011;19795;53.160;6.612;2023-03-08T06:11:02;7.18;;;3.20;;
33459;SDS011;19795;53.160;6.612;2023-03-08T06:13:28;9.68;;;3.85;;
33459;SDS011;19795;53.160;6.612;2023-03-08T06:15:54;6.90;;;2.95;;
33459;SDS011;19795;53.160;6.612;2023-03-08T06:18:21;7.82;;;3.17;;
33459;SDS011;19795;53.160;6.612;2023-03-08T06:20:58;7.40;;;3.05;;
33459;SDS011;19795;53.160;6.612;2023-03-08T06:23:50;6.38;;;4.15;;
33459;SDS011;19795;53.160;6.612;2023-03-08T06:26:16;8.68;;;3.88;;
33459;SDS011;19795;53.160;6.612;2023-03-08T06:28:41;6.25;;;3.90;;
33459;SDS011;19795;53.160;6.612;2023-03-08T06:31:09;6.82;;;4.35;;
33459;SDS011;19795;53.160;6.612;2023-03-08T06:33:36;8.27;;;4.63;;
33459;SDS011;19795;53.160;6.612;2023-03-08T06:41:13;8.73;;;4.60;;
33459;SDS011;19795;53.160;6.612;2023-03-08T06:43:40;10.48;;;5.05;;
33459;SDS011;19795;53.160;6.612;2023-03-08T06:46:06;9.60;;;5.70;;
33459;SDS011;19795;53.160;6.612;2023-03-08T06:48:34;10.50;;;5.75;;
33459;SDS011;19795;53.160;6.612;2023-03-08T06:51:00;9.30;;;5.20;;
33459;SDS011;19795;53.160;6.612;2023-03-08T06:53:26;13.43;;;5.90;;
33459;SDS011;19795;53.160;6.612;2023-03-08T06:55:52;11.77;;;6.25;;
33459;SDS011;19795;53.160;6.612;2023-03-08T06:58:18;10.07;;;5.85;;
33459;SDS011;19795;53.160;6.612;2023-03-08T07:00:44;16.15;;;6.75;;
33459;SDS011;19795;53.160;6.612;2023-03-08T07:03:10;11.77;;;6.72;;
33459;SDS011;19795;53.160;6.612;2023-03-08T07:05:36;11.85;;;7.70;;
33459;SDS011;19795;53.160;6.612;2023-03-08T07:08:02;12.98;;;8.07;;
33459;SDS011;19795;53.160;6.612;2023-03-08T07:10:29;16.05;;;9.85;;
33459;SDS011;19795;53.160;6.612;2023-03-08T07:12:55;14.55;;;9.63;;
33459;SDS011;19795;53.160;6.612;2023-03-08T07:15:21;16.17;;;10.25;;
33459;SDS011;19795;53.160;6.612;2023-03-08T07:17:48;15.48;;;10.40;;
33459;SDS011;19795;53.160;6.612;2023-03-08T07:20:17;15.23;;;9.95;;
33459;SDS011;19795;53.160;6.612;2023-03-08T07:22:44;13.20;;;9.50;;
33459;SDS011;19795;53.160;6.612;2023-03-08T07:25:11;17.50;;;10.50;;
33459;SDS011;19795;53.160;6.612;2023-03-08T07:27:38;13.93;;;9.50;;
33459;SDS011;19795;53.160;6.612;2023-03-08T07:30:04;14.57;;;10.43;;
33459;SDS011;19795;53.160;6.612;2023-03-08T07:32:30;13.23;;;10.18;;
33459;SDS011;19795;53.160;6.612;2023-03-08T07:34:55;12.63;;;9.52;;
33459;SDS011;19795;53.160;6.612;2023-03-08T07:37:21;13.63;;;9.65;;
33459;SDS011;19795;53.160;6.612;2023-03-08T07:39:47;14.15;;;9.15;;
33459;SDS011;19795;53.160;6.612;2023-03-08T07:42:13;13.48;;;8.68;;
33459;SDS011;19795;53.160;6.612;2023-03-08T07:44:39;11.75;;;8.07;;
33459;SDS011;19795;53.160;6.612;2023-03-08T07:47:05;11.93;;;7.57;;
33459;SDS011;19795;53.160;6.612;2023-03-08T07:49:31;10.85;;;7.65;;
33459;SDS011;19795;53.160;6.612;2023-03-08T07:51:57;11.23;;;8.27;;
33459;SDS011;19795;53.160;6.612;2023-03-08T07:54:23;11.75;;;8.52;;
33459;SDS011;19795;53.160;6.612;2023-03-08T07:56:50;13.05;;;8.43;;
33459;SDS011;19795;53.160;6.612;2023-03-08T07:59:16;11.48;;;8.57;;
33459;SDS011;19795;53.160;6.612;2023-03-08T08:01:42;15.50;;;9.30;;
33459;SDS011;19795;53.160;6.612;2023-03-08T08:04:08;12.77;;;8.68;;
33459;SDS011;19795;53.160;6.612;2023-03-08T08:06:36;11.77;;;8.38;;
33459;SDS011;19795;53.160;6.612;2023-03-08T08:09:02;14.80;;;8.90;;
33459;SDS011;19795;53.160;6.612;2023-03-08T08:11:29;13.82;;;8.65;;
33459;SDS011;19795;53.160;6.612;2023-03-08T08:13:54;14.52;;;9.52;;
33459;SDS011;19795;53.160;6.612;2023-03-08T08:16:20;15.55;;;8.48;;
33459;SDS011;19795;53.160;6.612;2023-03-08T08:18:46;10.05;;;7.30;;
33459;SDS011;19795;53.160;6.612;2023-03-08T08:21:13;9.40;;;7.38;;
33459;SDS011;19795;53.160;6.612;2023-03-08T08:23:40;12.35;;;7.80;;
33459;SDS011;19795;53.160;6.612;2023-03-08T08:26:14;9.98;;;7.18;;
33459;SDS011;19795;53.160;6.612;2023-03-08T08:28:42;12.25;;;8.52;;
33459;SDS011;19795;53.160;6.612;2023-03-08T08:31:10;11.02;;;8.68;;
33459;SDS011;19795;53.160;6.612;2023-03-08T08:33:38;15.85;;;10.02;;
33459;SDS011;19795;53.160;6.612;2023-03-08T08:36:05;12.70;;;9.50;;
33459;SDS011;19795;53.160;6.612;2023-03-08T08:38:32;9.32;;;7.57;;
33459;SDS011;19795;53.160;6.612;2023-03-08T08:41:02;10.93;;;7.72;;
33459;SDS011;19795;53.160;6.612;2023-03-08T08:43:30;11.70;;;6.72;;
33459;SDS011;19795;53.160;6.612;2023-03-08T08:45:58;10.30;;;7.03;;
33459;SDS011;19795;53.160;6.612;2023-03-08T08:48:24;9.50;;;6.00;;
33459;SDS011;19795;53.160;6.612;2023-03-08T08:50:50;8.13;;;5.97;;
33459;SDS011;19795;53.160;6.612;2023-03-08T08:53:18;9.45;;;6.22;;
33459;SDS011;19795;53.160;6.612;2023-03-08T08:55:44;8.60;;;6.15;;
33459;SDS011;19795;53.160;6.612;2023-03-08T08:58:10;8.52;;;6.25;;
33459;SDS011;19795;53.160;6.612;2023-03-08T09:00:36;9.02;;;6.00;;
33459;SDS011;19795;53.160;6.612;2023-03-08T09:03:03;10.57;;;5.72;;
33459;SDS011;19795;53.160;6.612;2023-03-08T09:05:29;7.38;;;5.78;;
33459;SDS011;19795;53.160;6.612;2023-03-08T09:07:56;7.70;;;5.05;;
33459;SDS011;19795;53.160;6.612;2023-03-08T09:10:23;8.07;;;5.00;;
33459;SDS011;19795;53.160;6.612;2023-03-08T09:12:50;8.63;;;5.32;;
33459;SDS011;19795;53.160;6.612;2023-03-08T09:15:16;10.45;;;4.97;;
33459;SDS011;19795;53.160;6.612;2023-03-08T09:17:42;8.70;;;5.28;;
33459;SDS011;19795;53.160;6.612;2023-03-08T09:20:08;9.32;;;4.93;;
33459;SDS011;19795;53.160;6.612;2023-03-08T09:22:37;7.25;;;5.05;;
33459;SDS011;19795;53.160;6.612;2023-03-08T09:25:04;8.23;;;4.35;;
33459;SDS011;19795;53.160;6.612;2023-03-08T09:27:31;9.77;;;4.80;;
33459;SDS011;19795;53.160;6.612;2023-03-08T09:29:57;8.90;;;4.00;;
33459;SDS011;19795;53.160;6.612;2023-03-08T09:32:23;5.25;;;3.70;;
33459;SDS011;19795;53.160;6.612;2023-03-08T09:34:49;8.00;;;3.67;;
33459;SDS011;19795;53.160;6.612;2023-03-08T09:37:15;6.32;;;3.58;;
33459;SDS011;19795;53.160;6.612;2023-03-08T09:39:42;7.75;;;3.90;;
33459;SDS011;19795;53.160;6.612;2023-03-08T09:42:19;7.47;;;4.00;;
33459;SDS011;19795;53.160;6.612;2023-03-08T09:52:37;4.60;;;2.88;;
33459;SDS011;19795;53.160;6.612;2023-03-08T09:55:24;5.43;;;3.00;;
33459;SDS011;19795;53.160;6.612;2023-03-08T09:58:39;8.80;;;2.85;;
33459;SDS011;19795;53.160;6.612;2023-03-08T10:00:51;7.15;;;3.10;;
33459;SDS011;19795;53.160;6.612;2023-03-08T10:03:31;6.72;;;3.00;;
33459;SDS011;19795;53.160;6.612;2023-03-08T10:11:46;6.85;;;2.70;;
33459;SDS011;19795;53.160;6.612;2023-03-08T10:14:35;4.60;;;2.50;;
33459;SDS011;19795;53.160;6.612;2023-03-08T10:17:08;4.60;;;2.60;;
33459;SDS011;19795;53.160;6.612;2023-03-08T10:19:40;4.70;;;1.70;;
33459;SDS011;19795;53.160;6.612;2023-03-08T10:22:15;2.97;;;1.83;;
33459;SDS011;19795;53.160;6.612;2023-03-08T10:27:38;4.25;;;1.80;;
33459;SDS011;19795;53.160;6.612;2023-03-08T10:30:16;4.10;;;1.80;;
33459;SDS011;19795;53.160;6.612;2023-03-08T10:32:44;5.43;;;2.22;;
33459;SDS011;19795;53.160;6.612;2023-03-08T10:35:11;4.22;;;2.05;;
33459;SDS011;19795;53.160;6.612;2023-03-08T10:37:37;4.88;;;2.00;;
33459;SDS011;19795;53.160;6.612;2023-03-08T10:40:13;4.80;;;1.85;;
33459;SDS011;19795;53.160;6.612;2023-03-08T10:42:45;2.80;;;1.85;;
33459;SDS011;19795;53.160;6.612;2023-03-08T10:45:17;5.22;;;2.13;;
33459;SDS011;19795;53.160;6.612;2023-03-08T10:47:59;3.95;;;2.00;;
33459;SDS011;19795;53.160;6.612;2023-03-08T10:50:30;2.78;;;1.67;;
33459;SDS011;19795;53.160;6.612;2023-03-08T10:53:16;2.47;;;1.48;;
33459;SDS011;19795;53.160;6.612;2023-03-08T10:55:46;4.23;;;1.40;;
33459;SDS011;19795;53.160;6.612;2023-03-08T11:00:57;2.72;;;1.75;;
33459;SDS011;19795;53.160;6.612;2023-03-08T11:03:26;2.85;;;1.60;;
33459;SDS011;19795;53.160;6.612;2023-03-08T11:06:03;3.60;;;1.30;;
33459;SDS011;19795;53.160;6.612;2023-03-08T11:08:51;2.75;;;0.80;;
33459;SDS011;19795;53.160;6.612;2023-03-08T11:11:19;1.60;;;1.08;;
33459;SDS011;19795;53.160;6.612;2023-03-08T11:13:46;4.05;;;0.98;;
33459;SDS011;19795;53.160;6.612;2023-03-08T11:21:49;3.53;;;1.13;;
33459;SDS011;19795;53.160;6.612;2023-03-08T11:30:44;4.07;;;0.88;;
33459;SDS011;19795;53.160;6.612;2023-03-08T11:35:51;2.47;;;1.10;;
33459;SDS011;19795;53.160;6.612;2023-03-08T11:38:37;1.88;;;1.10;;
33459;SDS011;19795;53.160;6.612;2023-03-08T11:46:26;2.72;;;0.70;;
33459;SDS011;19795;53.160;6.612;2023-03-08T11:57:52;4.40;;;1.30;;
33459;SDS011;19795;53.160;6.612;2023-03-08T12:00:31;3.05;;;1.38;;
33459;SDS011;19795;53.160;6.612;2023-03-08T12:03:05;3.15;;;1.50;;
33459;SDS011;19795;53.160;6.612;2023-03-08T12:05:54;6.78;;;1.40;;
33459;SDS011;19795;53.160;6.612;2023-03-08T12:11:15;2.95;;;1.52;;
33459;SDS011;19795;53.160;6.612;2023-03-08T12:13:54;5.68;;;1.80;;
33459;SDS011;19795;53.160;6.612;2023-03-08T12:16:33;3.58;;;1.60;;
33459;SDS011;19795;53.160;6.612;2023-03-08T12:32:35;5.75;;;2.78;;
33459;SDS011;19795;53.160;6.612;2023-03-08T12:35:04;4.05;;;2.63;;
33459;SDS011;19795;53.160;6.612;2023-03-08T12:37:54;5.45;;;2.95;;
33459;SDS011;19795;53.160;6.612;2023-03-08T12:43:42;4.95;;;2.95;;
33459;SDS011;19795;53.160;6.612;2023-03-08T12:48:26;6.32;;;3.22;;
33459;SDS011;19795;53.160;6.612;2023-03-08T12:56:21;4.80;;;2.70;;
33459;SDS011;19795;53.160;6.612;2023-03-08T13:01:28;4.75;;;2.50;;
33459;SDS011;19795;53.160;6.612;2023-03-08T13:03:56;6.90;;;2.78;;
33459;SDS011;19795;53.160;6.612;2023-03-08T13:08:51;5.35;;;2.40;;
33459;SDS011;19795;53.160;6.612;2023-03-08T13:11:40;5.00;;;2.38;;
33459;SDS011;19795;53.160;6.612;2023-03-08T13:14:22;7.72;;;2.58;;
33459;SDS011;19795;53.160;6.612;2023-03-08T13:16:50;3.90;;;2.25;;
33459;SDS011;19795;53.160;6.612;2023-03-08T13:19:19;4.35;;;2.35;;
33459;SDS011;19795;53.160;6.612;2023-03-08T13:24:40;4.93;;;2.17;;
33459;SDS011;19795;53.160;6.612;2023-03-08T13:30:06;5.80;;;2.22;;
33459;SDS011;19795;53.160;6.612;2023-03-08T13:32:56;5.63;;;2.10;;
33459;SDS011;19795;53.160;6.612;2023-03-08T13:35:24;5.22;;;2.25;;
33459;SDS011;19795;53.160;6.612;2023-03-08T13:37:55;5.28;;;2.38;;
33459;SDS011;19795;53.160;6.612;2023-03-08T13:40:24;6.03;;;2.80;;
33459;SDS011;19795;53.160;6.612;2023-03-08T13:42:58;5.13;;;2.63;;
33459;SDS011;19795;53.160;6.612;2023-03-08T13:45:35;5.05;;;2.50;;
33459;SDS011;19795;53.160;6.612;2023-03-08T13:48:02;3.72;;;1.90;;
33459;SDS011;19795;53.160;6.612;2023-03-08T13:50:34;4.82;;;2.10;;
33459;SDS011;19795;53.160;6.612;2023-03-08T13:53:05;2.92;;;1.55;;
33459;SDS011;19795;53.160;6.612;2023-03-08T13:55:34;3.75;;;1.83;;
33459;SDS011;19795;53.160;6.612;2023-03-08T13:58:06;2.95;;;1.40;;
33459;SDS011;19795;53.160;6.612;2023-03-08T14:00:55;5.22;;;1.83;;
33459;SDS011;19795;53.160;6.612;2023-03-08T14:03:40;4.43;;;1.75;;
33459;SDS011;19795;53.160;6.612;2023-03-08T14:09:02;2.28;;;1.60;;
33459;SDS011;19795;53.160;6.612;2023-03-08T14:11:30;5.18;;;1.50;;
33459;SDS011;19795;53.160;6.612;2023-03-08T14:13:59;4.80;;;1.50;;
33459;SDS011;19795;53.160;6.612;2023-03-08T14:16:29;2.45;;;1.52;;
33459;SDS011;19795;53.160;6.612;2023-03-08T14:19:08;3.85;;;1.58;;
33459;SDS011;19795;53.160;6.612;2023-03-08T14:21:53;3.45;;;1.40;;
33459;SDS011;19795;53.160;6.612;2023-03-08T14:24:22;4.50;;;1.70;;
33459;SDS011;19795;53.160;6.612;2023-03-08T14:26:53;3.95;;;1.38;;
33459;SDS011;19795;53.160;6.612;2023-03-08T14:29:24;2.83;;;1.55;;
33459;SDS011;19795;53.160;6.612;2023-03-08T14:31:52;4.80;;;2.00;;
33459;SDS011;19795;53.160;6.612;2023-03-08T14:34:26;3.47;;;1.92;;
33459;SDS011;19795;53.160;6.612;2023-03-08T14:36:58;3.97;;;2.13;;
33459;SDS011;19795;53.160;6.612;2023-03-08T14:39:27;4.13;;;1.60;;
33459;SDS011;19795;53.160;6.612;2023-03-08T14:41:57;5.35;;;2.03;;
33459;SDS011;19795;53.160;6.612;2023-03-08T14:44:50;5.05;;;2.13;;
33459;SDS011;19795;53.160;6.612;2023-03-08T14:47:27;3.20;;;1.80;;
33459;SDS011;19795;53.160;6.612;2023-03-08T14:49:55;4.32;;;2.47;;
33459;SDS011;19795;53.160;6.612;2023-03-08T14:52:26;5.15;;;2.38;;
33459;SDS011;19795;53.160;6.612;2023-03-08T14:54:53;5.45;;;2.30;;
33459;SDS011;19795;53.160;6.612;2023-03-08T14:57:23;4.18;;;2.22;;
33459;SDS011;19795;53.160;6.612;2023-03-08T14:59:51;6.85;;;2.80;;
33459;SDS011;19795;53.160;6.612;2023-03-08T15:02:17;6.40;;;2.30;;
33459;SDS011;19795;53.160;6.612;2023-03-08T15:04:43;5.00;;;2.65;;
33459;SDS011;19795;53.160;6.612;2023-03-08T15:07:28;4.55;;;2.53;;
33459;SDS011;19795;53.160;6.612;2023-03-08T15:09:58;5.70;;;2.63;;
33459;SDS011;19795;53.160;6.612;2023-03-08T15:12:26;4.65;;;2.33;;
33459;SDS011;19795;53.160;6.612;2023-03-08T15:14:52;6.30;;;2.53;;
33459;SDS011;19795;53.160;6.612;2023-03-08T15:17:18;6.40;;;3.13;;
33459;SDS011;19795;53.160;6.612;2023-03-08T15:19:43;4.85;;;2.20;;
33459;SDS011;19795;53.160;6.612;2023-03-08T15:22:09;3.22;;;1.58;;
33459;SDS011;19795;53.160;6.612;2023-03-08T15:24:37;4.43;;;2.30;;
33459;SDS011;19795;53.160;6.612;2023-03-08T15:27:03;3.72;;;2.03;;
33459;SDS011;19795;53.160;6.612;2023-03-08T15:29:31;4.63;;;2.00;;
33459;SDS011;19795;53.160;6.612;2023-03-08T15:31:57;8.00;;;2.60;;
33459;SDS011;19795;53.160;6.612;2023-03-08T15:34:24;4.47;;;2.40;;
33459;SDS011;19795;53.160;6.612;2023-03-08T15:36:51;5.53;;;2.47;;
33459;SDS011;19795;53.160;6.612;2023-03-08T15:39:18;6.22;;;2.20;;
33459;SDS011;19795;53.160;6.612;2023-03-08T15:41:44;5.03;;;2.40;;
33459;SDS011;19795;53.160;6.612;2023-03-08T15:44:11;6.68;;;2.33;;
33459;SDS011;19795;53.160;6.612;2023-03-08T15:46:37;5.30;;;2.00;;
33459;SDS011;19795;53.160;6.612;2023-03-08T15:49:03;5.45;;;2.25;;
33459;SDS011;19795;53.160;6.612;2023-03-08T15:51:30;5.60;;;2.40;;
33459;SDS011;19795;53.160;6.612;2023-03-08T15:53:59;5.15;;;2.38;;
33459;SDS011;19795;53.160;6.612;2023-03-08T15:56:25;5.13;;;2.17;;
33459;SDS011;19795;53.160;6.612;2023-03-08T15:58:51;5.93;;;2.35;;
33459;SDS011;19795;53.160;6.612;2023-03-08T16:01:18;4.88;;;2.53;;
33459;SDS011;19795;53.160;6.612;2023-03-08T16:03:45;3.60;;;1.85;;
33459;SDS011;19795;53.160;6.612;2023-03-08T16:06:11;7.20;;;2.45;;
33459;SDS011;19795;53.160;6.612;2023-03-08T16:08:38;6.93;;;2.40;;
33459;SDS011;19795;53.160;6.612;2023-03-08T16:11:12;6.93;;;2.75;;
33459;SDS011;19795;53.160;6.612;2023-03-08T16:16:04;4.90;;;2.40;;
33459;SDS011;19795;53.160;6.612;2023-03-08T16:18:31;4.95;;;2.17;;
33459;SDS011;19795;53.160;6.612;2023-03-08T16:20:58;5.07;;;2.17;;
33459;SDS011;19795;53.160;6.612;2023-03-08T16:23:24;6.00;;;2.47;;
33459;SDS011;19795;53.160;6.612;2023-03-08T16:26:00;5.32;;;2.35;;
33459;SDS011;19795;53.160;6.612;2023-03-08T16:28:27;8.13;;;2.58;;
33459;SDS011;19795;53.160;6.612;2023-03-08T16:30:53;6.35;;;2.67;;
33459;SDS011;19795;53.160;6.612;2023-03-08T16:33:19;4.55;;;2.28;;
33459;SDS011;19795;53.160;6.612;2023-03-08T16:35:49;9.25;;;2.50;;
33459;SDS011;19795;53.160;6.612;2023-03-08T16:38:16;4.53;;;2.20;;
33459;SDS011;19795;53.160;6.612;2023-03-08T16:40:42;5.25;;;2.65;;
33459;SDS011;19795;53.160;6.612;2023-03-08T16:43:08;4.40;;;2.13;;
33459;SDS011;19795;53.160;6.612;2023-03-08T16:45:34;5.15;;;2.15;;
33459;SDS011;19795;53.160;6.612;2023-03-08T16:48:00;4.28;;;2.40;;
33459;SDS011;19795;53.160;6.612;2023-03-08T16:50:27;4.53;;;2.35;;
33459;SDS011;19795;53.160;6.612;2023-03-08T16:52:53;5.63;;;2.45;;
33459;SDS011;19795;53.160;6.612;2023-03-08T16:55:19;6.78;;;2.17;;
33459;SDS011;19795;53.160;6.612;2023-03-08T16:57:44;5.95;;;1.88;;
33459;SDS011;19795;53.160;6.612;2023-03-08T17:00:10;7.38;;;2.25;;
33459;SDS011;19795;53.160;6.612;2023-03-08T17:02:37;6.07;;;2.00;;
33459;SDS011;19795;53.160;6.612;2023-03-08T17:05:03;4.60;;;2.00;;
33459;SDS011;19795;53.160;6.612;2023-03-08T17:07:30;4.28;;;2.20;;
33459;SDS011;19795;53.160;6.612;2023-03-08T17:09:56;7.57;;;2.60;;
33459;SDS011;19795;53.160;6.612;2023-03-08T17:12:22;4.78;;;1.88;;
33459;SDS011;19795;53.160;6.612;2023-03-08T17:14:48;6.28;;;2.10;;
33459;SDS011;19795;53.160;6.612;2023-03-08T17:17:13;6.93;;;2.78;;
33459;SDS011;19795;53.160;6.612;2023-03-08T17:19:40;5.80;;;2.20;;
33459;SDS011;19795;53.160;6.612;2023-03-08T17:22:06;8.45;;;3.00;;
33459;SDS011;19795;53.160;6.612;2023-03-08T17:24:32;4.60;;;2.05;;
33459;SDS011;19795;53.160;6.612;2023-03-08T17:26:58;9.25;;;3.25;;
33459;SDS011;19795;53.160;6.612;2023-03-08T17:29:24;6.38;;;3.22;;
33459;SDS011;19795;53.160;6.612;2023-03-08T17:31:50;8.45;;;3.90;;
33459;SDS011;19795;53.160;6.612;2023-03-08T17:34:19;8.23;;;2.53;;
33459;SDS011;19795;53.160;6.612;2023-03-08T17:36:48;6.82;;;2.40;;
33459;SDS011;19795;53.160;6.612;2023-03-08T17:39:14;6.32;;;2.40;;
33459;SDS011;19795;53.160;6.612;2023-03-08T17:41:41;7.72;;;2.45;;
33459;SDS011;19795;53.160;6.612;2023-03-08T17:44:08;5.50;;;2.28;;
33459;SDS011;19795;53.160;6.612;2023-03-08T17:46:34;6.47;;;2.72;;
33459;SDS011;19795;53.160;6.612;2023-03-08T17:49:00;8.93;;;3.05;;
33459;SDS011;19795;53.160;6.612;2023-03-08T17:51:26;4.72;;;2.30;;
33459;SDS011;19795;53.160;6.612;2023-03-08T17:53:53;8.73;;;3.35;;
33459;SDS011;19795;53.160;6.612;2023-03-08T17:56:22;7.22;;;2.85;;
33459;SDS011;19795;53.160;6.612;2023-03-08T17:58:53;7.38;;;3.35;;
33459;SDS011;19795;53.160;6.612;2023-03-08T18:01:24;7.03;;;3.08;;
33459;SDS011;19795;53.160;6.612;2023-03-08T18:03:52;6.47;;;3.10;;
33459;SDS011;19795;53.160;6.612;2023-03-08T18:06:29;6.50;;;3.17;;
33459;SDS011;19795;53.160;6.612;2023-03-08T18:08:58;7.05;;;3.40;;
33459;SDS011;19795;53.160;6.612;2023-03-08T18:11:24;6.50;;;3.38;;
33459;SDS011;19795;53.160;6.612;2023-03-08T18:13:51;8.02;;;2.97;;
33459;SDS011;19795;53.160;6.612;2023-03-08T18:16:18;7.07;;;3.15;;
33459;SDS011;19795;53.160;6.612;2023-03-08T18:18:45;5.78;;;3.08;;
33459;SDS011;19795;53.160;6.612;2023-03-08T18:21:13;7.20;;;2.83;;
33459;SDS011;19795;53.160;6.612;2023-03-08T18:23:40;7.35;;;3.30;;
33459;SDS011;19795;53.160;6.612;2023-03-08T18:26:07;7.20;;;3.17;;
33459;SDS011;19795;53.160;6.612;2023-03-08T18:28:34;7.80;;;3.83;;
33459;SDS011;19795;53.160;6.612;2023-03-08T18:31:04;6.60;;;3.35;;
33459;SDS011;19795;53.160;6.612;2023-03-08T18:36:00;7.07;;;3.15;;
33459;SDS011;19795;53.160;6.612;2023-03-08T18:38:26;8.30;;;3.08;;
33459;SDS011;19795;53.160;6.612;2023-03-08T18:40:54;9.10;;;3.55;;
33459;SDS011;19795;53.160;6.612;2023-03-08T18:43:23;10.35;;;3.47;;
33459;SDS011;19795;53.160;6.612;2023-03-08T18:45:50;8.15;;;3.65;;
33459;SDS011;19795;53.160;6.612;2023-03-08T18:48:18;8.43;;;4.10;;
33459;SDS011;19795;53.160;6.612;2023-03-08T18:50:44;9.02;;;4.55;;
33459;SDS011;19795;53.160;6.612;2023-03-08T18:53:10;9.75;;;4.50;;
33459;SDS011;19795;53.160;6.612;2023-03-08T18:55:37;6.95;;;4.25;;
33459;SDS011;19795;53.160;6.612;2023-03-08T18:58:03;7.30;;;4.13;;
33459;SDS011;19795;53.160;6.612;2023-03-08T19:00:29;10.25;;;4.65;;
33459;SDS011;19795;53.160;6.612;2023-03-08T19:02:55;9.90;;;4.68;;
33459;SDS011;19795;53.160;6.612;2023-03-08T19:05:21;10.25;;;4.30;;
33459;SDS011;19795;53.160;6.612;2023-03-08T19:07:47;11.20;;;4.95;;
33459;SDS011;19795;53.160;6.612;2023-03-08T19:10:17;9.90;;;4.20;;
33459;SDS011;19795;53.160;6.612;2023-03-08T19:12:42;6.55;;;3.42;;
33459;SDS011;19795;53.160;6.612;2023-03-08T19:15:09;8.18;;;4.00;;
33459;SDS011;19795;53.160;6.612;2023-03-08T19:17:35;8.70;;;3.83;;
33459;SDS011;19795;53.160;6.612;2023-03-08T19:20:01;9.10;;;4.32;;
33459;SDS011;19795;53.160;6.612;2023-03-08T19:22:28;8.77;;;4.07;;
33459;SDS011;19795;53.160;6.612;2023-03-08T19:24:54;9.80;;;4.68;;
33459;SDS011;19795;53.160;6.612;2023-03-08T19:27:20;9.18;;;4.38;;
33459;SDS011;19795;53.160;6.612;2023-03-08T19:29:46;8.98;;;4.68;;
33459;SDS011;19795;53.160;6.612;2023-03-08T19:32:11;12.98;;;5.00;;
33459;SDS011;19795;53.160;6.612;2023-03-08T19:34:39;10.98;;;4.97;;
33459;SDS011;19795;53.160;6.612;2023-03-08T19:37:06;11.93;;;4.53;;
33459;SDS011;19795;53.160;6.612;2023-03-08T19:39:34;9.05;;;4.90;;
33459;SDS011;19795;53.160;6.612;2023-03-08T19:42:02;11.75;;;5.10;;
33459;SDS011;19795;53.160;6.612;2023-03-08T19:44:29;10.30;;;4.97;;
33459;SDS011;19795;53.160;6.612;2023-03-08T19:46:56;8.23;;;4.05;;
33459;SDS011;19795;53.160;6.612;2023-03-08T19:49:25;9.85;;;4.90;;
33459;SDS011;19795;53.160;6.612;2023-03-08T19:51:54;11.88;;;4.75;;
33459;SDS011;19795;53.160;6.612;2023-03-08T19:54:21;9.38;;;4.07;;
33459;SDS011;19795;53.160;6.612;2023-03-08T19:56:48;11.00;;;4.30;;
33459;SDS011;19795;53.160;6.612;2023-03-08T19:59:14;13.73;;;5.25;;
33459;SDS011;19795;53.160;6.612;2023-03-08T20:01:39;8.40;;;4.63;;
33459;SDS011;19795;53.160;6.612;2023-03-08T20:04:06;10.60;;;4.70;;
33459;SDS011;19795;53.160;6.612;2023-03-08T20:06:33;10.88;;;4.93;;
33459;SDS011;19795;53.160;6.612;2023-03-08T20:09:04;11.65;;;5.35;;
33459;SDS011;19795;53.160;6.612;2023-03-08T20:11:32;10.45;;;4.80;;
33459;SDS011;19795;53.160;6.612;2023-03-08T20:13:57;10.88;;;5.10;;
33459;SDS011;19795;53.160;6.612;2023-03-08T20:16:23;11.13;;;5.20;;
33459;SDS011;19795;53.160;6.612;2023-03-08T20:18:50;11.27;;;5.35;;
33459;SDS011;19795;53.160;6.612;2023-03-08T20:21:16;14.02;;;5.30;;
33459;SDS011;19795;53.160;6.612;2023-03-08T20:23:44;10.63;;;5.30;;
33459;SDS011;19795;53.160;6.612;2023-03-08T20:26:10;11.45;;;5.38;;
33459;SDS011;19795;53.160;6.612;2023-03-08T20:28:36;10.98;;;5.18;;
33459;SDS011;19795;53.160;6.612;2023-03-08T20:31:09;18.02;;;5.80;;
33459;SDS011;19795;53.160;6.612;2023-03-08T20:33:36;13.65;;;5.97;;
33459;SDS011;19795;53.160;6.612;2023-03-08T20:36:01;14.35;;;6.38;;
33459;SDS011;19795;53.160;6.612;2023-03-08T20:38:27;13.65;;;6.65;;
33459;SDS011;19795;53.160;6.612;2023-03-08T20:41:00;13.70;;;6.50;;
33459;SDS011;19795;53.160;6.612;2023-03-08T20:43:28;16.23;;;7.60;;
33459;SDS011;19795;53.160;6.612;2023-03-08T20:45:55;15.27;;;7.43;;
33459;SDS011;19795;53.160;6.612;2023-03-08T20:48:30;16.88;;;7.20;;
33459;SDS011;19795;53.160;6.612;2023-03-08T20:50:58;15.10;;;7.35;;
33459;SDS011;19795;53.160;6.612;2023-03-08T20:53:24;15.18;;;7.82;;
33459;SDS011;19795;53.160;6.612;2023-03-08T20:55:50;14.73;;;7.53;;
33459;SDS011;19795;53.160;6.612;2023-03-08T20:58:18;14.55;;;7.05;;
33459;SDS011;19795;53.160;6.612;2023-03-08T21:00:43;17.20;;;8.70;;
33459;SDS011;19795;53.160;6.612;2023-03-08T21:03:09;20.45;;;8.48;;
33459;SDS011;19795;53.160;6.612;2023-03-08T21:05:35;18.60;;;8.98;;
33459;SDS011;19795;53.160;6.612;2023-03-08T21:08:01;23.88;;;10.13;;
33459;SDS011;19795;53.160;6.612;2023-03-08T21:10:29;21.30;;;10.25;;
33459;SDS011;19795;53.160;6.612;2023-03-08T21:12:57;22.88;;;11.40;;
33459;SDS011;19795;53.160;6.612;2023-03-08T21:15:23;22.77;;;10.70;;
33459;SDS011;19795;53.160;6.612;2023-03-08T21:17:49;23.98;;;12.35;;
33459;SDS011;19795;53.160;6.612;2023-03-08T21:20:15;24.23;;;12.85;;
33459;SDS011;19795;53.160;6.612;2023-03-08T21:22:41;26.20;;;12.57;;
33459;SDS011;19795;53.160;6.612;2023-03-08T21:25:06;27.25;;;11.88;;
33459;SDS011;19795;53.160;6.612;2023-03-08T21:27:32;30.05;;;13.45;;
33459;SDS011;19795;53.160;6.612;2023-03-08T21:29:58;27.50;;;13.48;;
33459;SDS011;19795;53.160;6.612;2023-03-08T21:32:24;25.73;;;13.38;;
33459;SDS011;19795;53.160;6.612;2023-03-08T21:34:50;28.77;;;14.82;;
33459;SDS011;19795;53.160;6.612;2023-03-08T21:37:16;28.52;;;14.77;;
33459;SDS011;19795;53.160;6.612;2023-03-08T21:39:41;25.55;;;12.90;;
33459;SDS011;19795;53.160;6.612;2023-03-08T21:42:07;30.55;;;15.30;;
33459;SDS011;19795;53.160;6.612;2023-03-08T21:44:33;27.27;;;13.60;;
33459;SDS011;19795;53.160;6.612;2023-03-08T21:46:58;34.70;;;15.45;;
33459;SDS011;19795;53.160;6.612;2023-03-08T21:49:25;31.70;;;15.48;;
33459;SDS011;19795;53.160;6.612;2023-03-08T21:51:54;32.72;;;14.35;;
33459;SDS011;19795;53.160;6.612;2023-03-08T21:54:21;26.08;;;12.52;;
33459;SDS011;19795;53.160;6.612;2023-03-08T21:56:48;28.45;;;14.23;;
33459;SDS011;19795;53.160;6.612;2023-03-08T21:59:14;30.92;;;15.07;;